Terminal Aerodrome Forecast
Issued by NWS Cleveland, OH

Home | Current Version | Previous Version | Graphics & Text | Print | Product List | Glossary On
Versions: 1 2 3 4 5 6 7 8 9 10 11 12 13 14 15 16 17 18
000
FTUS41 KCLE 211900 AAA
TAFTOL
TAF AMD
KTOL 211925Z 2119/2218 28018G30KT P6SM VCSH BKN035 OVC045
      TEMPO 2119/2123 4SM -TSRA BKN015 OVC025CB
     FM220200 32010KT P6SM SCT015 BKN025
     FM221400 34008KT P6SM SCT035=

USA.gov is the U.S. government's official web portal to all federal, state and local government web resources and services.